createdAt,value
2022-12-16T00:01:20.036Z,11.96
2022-12-16T00:03:54.955Z,11.95
2022-12-16T00:06:24.117Z,11.89
2022-12-16T00:08:51.793Z,11.87
2022-12-16T00:11:20.482Z,11.85
2022-12-16T00:13:47.820Z,11.83
2022-12-16T00:16:17.284Z,11.78
2022-12-16T00:18:45.175Z,11.75
2022-12-16T00:21:12.857Z,11.73
2022-12-16T00:23:42.132Z,11.69
2022-12-16T00:26:09.545Z,11.68
2022-12-16T00:28:37.432Z,11.65
2022-12-16T00:31:05.236Z,11.63
2022-12-16T00:33:33.646Z,11.59
2022-12-16T00:36:00.905Z,11.56
2022-12-16T00:38:28.071Z,11.54
2022-12-16T00:40:55.285Z,11.53
2022-12-16T00:43:22.939Z,11.50
2022-12-16T00:45:52.308Z,11.47
2022-12-16T00:48:23.384Z,11.45
2022-12-16T00:50:52.692Z,11.43
2022-12-16T00:53:23.776Z,11.41
2022-12-16T00:55:51.403Z,11.39
2022-12-16T00:58:19.003Z,11.39
2022-12-16T01:00:45.989Z,11.34
2022-12-16T01:03:17.981Z,11.31
2022-12-16T01:05:48.400Z,11.28
2022-12-16T01:08:15.206Z,11.28
2022-12-16T01:10:42.256Z,11.26
2022-12-16T01:13:09.200Z,11.25
2022-12-16T01:15:38.144Z,11.24
2022-12-16T01:18:05.501Z,11.22
2022-12-16T01:20:33.672Z,11.19
2022-12-16T01:23:01.067Z,11.18
2022-12-16T01:25:28.306Z,11.17
2022-12-16T01:27:55.278Z,11.13
2022-12-16T01:30:22.345Z,11.14
2022-12-16T01:32:49.355Z,11.10
2022-12-16T01:35:44.232Z,11.10
2022-12-16T01:38:04.864Z,11.08
2022-12-16T01:40:31.907Z,11.08
2022-12-16T01:42:58.756Z,11.05
2022-12-16T01:45:26.024Z,11.05
2022-12-16T01:47:57.180Z,11.03
2022-12-16T01:50:24.523Z,11.01
2022-12-16T01:52:56.738Z,11.01
2022-12-16T01:55:34.060Z,10.99
2022-12-16T01:58:05.925Z,10.98
2022-12-16T02:00:33.556Z,10.98
2022-12-16T02:03:01.391Z,10.97
2022-12-16T02:05:29.616Z,10.94
2022-12-16T02:08:07.076Z,10.94
2022-12-16T02:10:55.002Z,10.93
2022-12-16T02:13:54.331Z,10.92
2022-12-16T02:16:48.169Z,10.92
2022-12-16T02:19:33.008Z,10.89
2022-12-16T02:22:08.835Z,10.88
2022-12-16T02:25:01.919Z,10.89
2022-12-16T02:28:04.497Z,10.89
2022-12-16T02:31:01.269Z,10.87
2022-12-16T02:33:40.966Z,10.86
2022-12-16T02:36:22.835Z,10.86
2022-12-16T02:39:09.134Z,10.84
2022-12-16T02:41:56.640Z,10.83
2022-12-16T02:44:36.063Z,10.80
2022-12-16T02:47:03.457Z,10.83
2022-12-16T02:49:30.799Z,10.81
2022-12-16T02:52:00.218Z,10.80
2022-12-16T02:54:28.626Z,10.79
2022-12-16T02:57:14.062Z,10.79
2022-12-16T02:59:55.889Z,10.77
2022-12-16T03:02:29.342Z,10.76
2022-12-16T03:05:08.595Z,10.79
2022-12-16T03:07:41.791Z,10.75
2022-12-16T03:10:12.746Z,10.76
2022-12-16T03:12:42.267Z,10.75
2022-12-16T03:15:12.550Z,10.76
2022-12-16T03:17:45.840Z,10.76
2022-12-16T03:20:18.048Z,10.75
2022-12-16T03:22:48.784Z,10.75
2022-12-16T03:25:16.758Z,10.75
2022-12-16T03:27:59.386Z,10.76
2022-12-16T03:30:33.442Z,10.75
2022-12-16T03:33:00.366Z,10.74
2022-12-16T03:35:45.696Z,10.75
2022-12-16T03:38:14.673Z,10.75
2022-12-16T03:40:43.428Z,10.74
2022-12-16T03:43:16.325Z,10.74
2022-12-16T03:45:46.358Z,10.75
2022-12-16T03:48:15.934Z,10.73
2022-12-16T03:50:43.031Z,10.75
2022-12-16T03:53:10.261Z,10.75
2022-12-16T03:55:37.145Z,10.75
2022-12-16T03:58:04.280Z,10.75
2022-12-16T04:00:31.378Z,10.75
2022-12-16T04:02:58.444Z,10.76
2022-12-16T04:05:25.848Z,10.75
2022-12-16T04:07:55.249Z,10.75
2022-12-16T04:10:44.517Z,10.75
2022-12-16T04:13:30.332Z,10.77
2022-12-16T04:16:16.261Z,10.73
2022-12-16T04:19:02.389Z,10.76
2022-12-16T04:21:48.044Z,10.76
2022-12-16T04:24:20.616Z,10.77
2022-12-16T04:27:11.907Z,10.76
2022-12-16T04:30:00.639Z,10.76
2022-12-16T04:32:27.826Z,10.76
2022-12-16T04:34:54.654Z,10.76
2022-12-16T04:37:40.654Z,10.77
2022-12-16T04:40:26.689Z,10.78
2022-12-16T04:43:12.222Z,10.78
2022-12-16T04:45:58.381Z,10.79
2022-12-16T04:48:43.940Z,10.80
2022-12-16T04:51:29.653Z,10.78
2022-12-16T04:54:15.406Z,10.79
2022-12-16T04:57:00.732Z,10.79
2022-12-16T04:59:46.323Z,10.79
2022-12-16T05:02:31.831Z,10.78
2022-12-16T05:05:17.401Z,10.80
2022-12-16T05:08:03.103Z,10.80
2022-12-16T05:10:48.408Z,10.78
2022-12-16T05:13:34.616Z,10.81
2022-12-16T05:16:20.449Z,10.81
2022-12-16T05:19:06.168Z,10.81
2022-12-16T05:21:51.434Z,10.81
2022-12-16T05:24:54.081Z,10.81
2022-12-16T05:27:39.688Z,10.82
2022-12-16T05:30:30.459Z,10.80
2022-12-16T05:33:19.198Z,10.81
2022-12-16T05:36:04.590Z,10.82
2022-12-16T05:38:50.134Z,10.81
2022-12-16T05:41:35.720Z,10.81
2022-12-16T05:44:21.398Z,10.82
2022-12-16T05:47:07.206Z,10.81
2022-12-16T05:49:52.645Z,10.82
2022-12-16T05:52:38.186Z,10.83
2022-12-16T05:55:25.942Z,10.84
2022-12-16T05:58:14.520Z,10.85
2022-12-16T06:00:59.969Z,10.86
2022-12-16T06:03:45.772Z,10.94
2022-12-16T06:06:31.433Z,11.03
2022-12-16T06:09:17.667Z,11.10
2022-12-16T06:12:03.428Z,11.16
2022-12-16T06:14:48.983Z,11.19
2022-12-16T06:17:34.702Z,11.13
2022-12-16T06:20:20.379Z,10.96
2022-12-16T06:23:12.612Z,11.01
2022-12-16T06:25:58.554Z,11.03
2022-12-16T06:28:46.051Z,11.08
2022-12-16T06:31:32.280Z,11.10
2022-12-16T06:34:18.110Z,11.13
2022-12-16T06:37:03.959Z,11.14
2022-12-16T06:39:52.949Z,11.15
2022-12-16T06:42:39.277Z,11.16
2022-12-16T06:45:28.895Z,11.18
2022-12-16T06:48:17.214Z,11.21
2022-12-16T06:51:03.007Z,11.21
2022-12-16T06:53:48.599Z,11.27
2022-12-16T06:56:34.396Z,11.28
2022-12-16T06:59:20.173Z,11.32
2022-12-16T07:02:05.974Z,11.39
2022-12-16T07:04:51.631Z,11.45
2022-12-16T07:07:37.371Z,11.50
2022-12-16T07:10:23.151Z,11.55
2022-12-16T07:13:09.068Z,11.59
2022-12-16T07:15:54.769Z,11.64
2022-12-16T07:18:40.083Z,11.66
2022-12-16T07:21:26.023Z,11.71
2022-12-16T07:24:11.718Z,11.75
2022-12-16T07:26:57.213Z,11.77
2022-12-16T07:29:43.054Z,11.79
2022-12-16T07:32:28.746Z,11.78
2022-12-16T07:35:14.516Z,11.68
2022-12-16T07:38:00.294Z,11.64
2022-12-16T07:40:45.776Z,11.63
2022-12-16T07:43:31.803Z,11.61
2022-12-16T07:46:17.993Z,11.56
2022-12-16T07:49:03.461Z,11.50
2022-12-16T07:51:48.990Z,11.36
2022-12-16T07:54:34.661Z,11.29
2022-12-16T07:57:20.397Z,11.21
2022-12-16T08:00:06.551Z,11.15
2022-12-16T08:02:52.215Z,11.26
2022-12-16T08:05:37.893Z,11.30
2022-12-16T08:08:23.644Z,11.29
2022-12-16T08:11:09.490Z,11.33
2022-12-16T08:13:55.098Z,11.30
2022-12-16T08:16:40.790Z,11.40
2022-12-16T08:19:26.437Z,11.43
2022-12-16T08:22:12.084Z,11.37
2022-12-16T08:25:08.736Z,11.40
2022-12-16T08:27:54.132Z,11.49
2022-12-16T08:30:41.711Z,11.58
2022-12-16T08:33:27.771Z,11.65
2022-12-16T08:36:17.539Z,11.70
2022-12-16T08:39:03.300Z,11.74
2022-12-16T08:41:48.807Z,11.78
2022-12-16T08:44:34.595Z,11.83
2022-12-16T08:47:20.333Z,11.85
2022-12-16T08:50:06.055Z,11.86
2022-12-16T08:52:51.611Z,11.90
2022-12-16T08:55:37.517Z,11.91
2022-12-16T08:58:23.103Z,11.90
2022-12-16T09:01:09.111Z,11.91
2022-12-16T09:03:56.452Z,11.90
2022-12-16T09:06:43.224Z,11.88
2022-12-16T09:09:29.355Z,11.90
2022-12-16T09:12:15.242Z,11.92
2022-12-16T09:15:00.636Z,11.91
2022-12-16T09:17:46.466Z,11.91
2022-12-16T09:20:31.823Z,11.95
2022-12-16T09:23:21.541Z,11.97
2022-12-16T09:26:07.420Z,11.94
2022-12-16T09:28:54.427Z,11.99
2022-12-16T09:31:40.125Z,12.03
2022-12-16T09:34:26.266Z,12.08
2022-12-16T09:37:11.781Z,12.14
2022-12-16T09:39:57.284Z,12.18
2022-12-16T09:42:55.520Z,12.24
2022-12-16T09:46:12.231Z,12.30
2022-12-16T09:49:10.074Z,12.35
2022-12-16T09:51:57.668Z,12.40
2022-12-16T09:54:48.693Z,12.43
2022-12-16T09:57:35.123Z,12.48
2022-12-16T10:00:24.755Z,12.54
2022-12-16T10:03:10.843Z,12.57
2022-12-16T10:06:20.748Z,12.65
2022-12-16T10:09:11.400Z,12.70
2022-12-16T10:12:26.541Z,12.73
2022-12-16T10:15:33.810Z,12.82
2022-12-16T10:18:25.007Z,12.86
2022-12-16T10:21:13.978Z,12.84
2022-12-16T10:24:18.232Z,12.87
2022-12-16T10:27:04.120Z,12.86
2022-12-16T10:29:52.383Z,12.91
2022-12-16T10:32:46.672Z,12.92
2022-12-16T10:35:46.655Z,12.99
2022-12-16T10:38:54.283Z,13.05
2022-12-16T10:41:44.756Z,13.10
2022-12-16T10:44:57.010Z,13.13
2022-12-16T10:47:42.824Z,13.17
2022-12-16T10:50:33.111Z,13.20
2022-12-16T10:53:23.729Z,13.23
2022-12-16T10:56:14.446Z,13.26
2022-12-16T10:59:12.674Z,13.23
2022-12-16T11:01:58.893Z,13.20
2022-12-16T11:04:52.393Z,13.16
2022-12-16T11:08:04.474Z,13.17
2022-12-16T11:10:54.395Z,13.14
2022-12-16T11:13:51.242Z,13.14
2022-12-16T11:16:43.251Z,13.18
2022-12-16T11:19:49.270Z,13.21
2022-12-16T11:22:41.585Z,13.16
2022-12-16T11:25:38.631Z,13.16
2022-12-16T11:28:24.820Z,13.16
2022-12-16T11:31:17.007Z,13.21
2022-12-16T11:34:03.713Z,13.19
2022-12-16T11:36:52.226Z,13.14
2022-12-16T11:39:42.985Z,13.16
2022-12-16T11:42:36.889Z,13.08
2022-12-16T11:45:24.940Z,13.06
2022-12-16T11:48:15.492Z,13.07
2022-12-16T11:51:11.726Z,13.08
2022-12-16T11:54:07.585Z,13.13
2022-12-16T11:57:01.519Z,13.15
2022-12-16T11:59:53.128Z,13.25
2022-12-16T12:03:05.320Z,13.31
2022-12-16T12:06:22.639Z,13.36
2022-12-16T12:09:37.473Z,13.26
2022-12-16T12:12:47.382Z,13.32
2022-12-16T12:16:00.642Z,13.38
2022-12-16T12:19:08.249Z,13.41
2022-12-16T12:22:07.882Z,13.43
2022-12-16T12:25:40.786Z,13.28
2022-12-16T12:28:32.487Z,13.23
2022-12-16T12:31:50.193Z,13.25
2022-12-16T12:35:02.532Z,13.29
2022-12-16T12:37:56.889Z,13.18
2022-12-16T12:41:09.663Z,13.10
2022-12-16T12:44:49.102Z,13.02
2022-12-16T12:47:36.397Z,12.96
2022-12-16T12:50:48.885Z,12.96
2022-12-16T12:53:43.857Z,12.94
2022-12-16T12:56:32.329Z,13.07
2022-12-16T12:59:23.744Z,13.25
2022-12-16T13:02:10.434Z,13.36
2022-12-16T13:04:58.434Z,13.48
2022-12-16T13:07:56.405Z,13.55
2022-12-16T13:10:46.029Z,13.65
2022-12-16T13:13:37.543Z,13.72
2022-12-16T13:16:28.425Z,13.79
2022-12-16T13:20:02.433Z,13.88
2022-12-16T13:22:54.509Z,13.96
2022-12-16T13:25:57.312Z,14.03
2022-12-16T13:28:45.077Z,14.04
2022-12-16T13:31:31.403Z,14.02
2022-12-16T13:34:27.023Z,14.04
2022-12-16T13:37:26.870Z,14.05
2022-12-16T13:40:32.901Z,14.03
2022-12-16T13:43:23.647Z,14.05
2022-12-16T13:46:19.548Z,14.10
2022-12-16T13:49:05.860Z,13.88
2022-12-16T13:52:00.244Z,13.85
2022-12-16T13:54:53.368Z,13.83
2022-12-16T13:57:43.576Z,13.90
2022-12-16T14:00:48.386Z,14.02
2022-12-16T14:03:43.144Z,14.06
2022-12-16T14:06:42.964Z,14.07
2022-12-16T14:09:58.776Z,14.12
2022-12-16T14:13:14.482Z,14.22
2022-12-16T14:16:27.078Z,14.31
2022-12-16T14:19:43.665Z,14.37
2022-12-16T14:22:44.900Z,14.41
2022-12-16T14:25:41.867Z,14.46
2022-12-16T14:28:44.204Z,14.50
2022-12-16T14:31:40.802Z,14.46
2022-12-16T14:34:55.298Z,14.44
2022-12-16T14:37:56.524Z,14.39
2022-12-16T14:40:52.972Z,14.34
2022-12-16T14:43:42.346Z,14.27
2022-12-16T14:46:52.470Z,14.21
2022-12-16T14:49:45.357Z,14.10
2022-12-16T14:52:47.488Z,13.89
2022-12-16T14:55:54.007Z,13.83
2022-12-16T14:58:43.488Z,13.80
2022-12-16T15:01:45.122Z,13.77
2022-12-16T15:04:38.064Z,13.76
2022-12-16T15:07:32.167Z,13.81
2022-12-16T15:10:19.991Z,13.77
2022-12-16T15:13:07.530Z,13.81
2022-12-16T15:16:01.390Z,13.85
2022-12-16T15:19:01.604Z,13.90
2022-12-16T15:21:47.791Z,13.93
2022-12-16T15:24:39.577Z,13.99
2022-12-16T15:27:45.751Z,14.00
2022-12-16T15:31:11.077Z,14.00
2022-12-16T15:33:59.548Z,14.03
2022-12-16T15:36:53.998Z,13.96
2022-12-16T15:40:02.454Z,13.89
2022-12-16T15:42:55.508Z,13.91
2022-12-16T15:45:52.411Z,13.89
2022-12-16T15:48:48.637Z,13.88
2022-12-16T15:52:01.643Z,13.83
2022-12-16T15:54:53.059Z,13.86
2022-12-16T15:57:54.555Z,13.81
2022-12-16T16:01:11.255Z,13.83
2022-12-16T16:04:14.320Z,13.83
2022-12-16T16:07:12.078Z,13.91
2022-12-16T16:09:59.966Z,14.01
2022-12-16T16:12:48.490Z,14.08
2022-12-16T16:15:56.781Z,14.13
2022-12-16T16:18:44.197Z,14.15
2022-12-16T16:21:33.116Z,14.16
2022-12-16T16:24:24.024Z,14.16
2022-12-16T16:27:21.130Z,14.17
2022-12-16T16:30:12.271Z,14.19
2022-12-16T16:32:58.551Z,14.19
2022-12-16T16:35:48.024Z,14.28
2022-12-16T16:38:34.297Z,14.30
2022-12-16T16:41:20.119Z,14.28
2022-12-16T16:44:06.457Z,14.31
2022-12-16T16:47:02.987Z,14.29
2022-12-16T16:49:51.618Z,14.27
2022-12-16T16:52:42.983Z,14.36
2022-12-16T16:55:36.707Z,14.41
2022-12-16T16:58:50.527Z,14.46
2022-12-16T17:01:39.008Z,14.51
2022-12-16T17:04:32.675Z,14.53
2022-12-16T17:07:23.061Z,14.54
2022-12-16T17:10:13.411Z,14.56
2022-12-16T17:13:04.654Z,14.61
2022-12-16T17:15:53.058Z,14.64
2022-12-16T17:18:44.699Z,14.63
2022-12-16T17:21:33.388Z,14.66
2022-12-16T17:24:19.468Z,14.65
2022-12-16T17:27:05.527Z,14.67
2022-12-16T17:29:52.589Z,14.69
2022-12-16T17:32:38.944Z,14.77
2022-12-16T17:35:25.541Z,14.80
2022-12-16T17:38:11.513Z,14.79
2022-12-16T17:40:58.271Z,14.79
2022-12-16T17:43:44.556Z,14.84
2022-12-16T17:46:33.135Z,14.92
2022-12-16T17:49:18.909Z,14.99
2022-12-16T17:52:05.119Z,15.07
2022-12-16T17:54:51.393Z,15.11
2022-12-16T17:57:37.280Z,15.16
2022-12-16T18:00:23.811Z,15.19
2022-12-16T18:03:19.769Z,15.26
2022-12-16T18:06:06.096Z,15.32
2022-12-16T18:08:51.861Z,15.37
2022-12-16T18:11:39.008Z,15.41
2022-12-16T18:14:30.036Z,15.45
2022-12-16T18:17:15.890Z,15.50
2022-12-16T18:20:02.760Z,15.52
2022-12-16T18:22:48.806Z,15.41
2022-12-16T18:25:35.157Z,15.39
2022-12-16T18:28:21.030Z,15.35
2022-12-16T18:31:07.124Z,15.31
2022-12-16T18:33:52.765Z,15.35
2022-12-16T18:36:38.782Z,15.44
2022-12-16T18:39:26.909Z,15.51
2022-12-16T18:42:14.485Z,15.52
2022-12-16T18:45:01.419Z,15.51
2022-12-16T18:47:47.442Z,15.48
2022-12-16T18:50:37.722Z,15.50
2022-12-16T18:53:24.632Z,15.47
2022-12-16T18:56:24.992Z,15.50
2022-12-16T18:59:10.628Z,15.47
2022-12-16T19:01:56.864Z,15.46
2022-12-16T19:04:43.280Z,15.43
2022-12-16T19:07:33.782Z,15.45
2022-12-16T19:10:19.701Z,15.47
2022-12-16T19:13:08.107Z,15.47
2022-12-16T19:15:55.515Z,15.46
2022-12-16T19:18:41.973Z,15.43
2022-12-16T19:21:33.085Z,15.32
2022-12-16T19:24:20.168Z,15.25
2022-12-16T19:27:15.227Z,15.17
2022-12-16T19:30:01.694Z,15.17
2022-12-16T19:32:47.647Z,15.24
2022-12-16T19:35:33.689Z,15.27
2022-12-16T19:38:19.372Z,15.27
2022-12-16T19:41:14.727Z,15.30
2022-12-16T19:44:06.141Z,15.27
2022-12-16T19:46:55.973Z,15.29
2022-12-16T19:49:44.623Z,15.33
2022-12-16T19:52:31.414Z,15.36
2022-12-16T19:55:22.254Z,15.37
2022-12-16T19:58:08.030Z,15.34
2022-12-16T20:00:55.668Z,15.33
2022-12-16T20:03:42.824Z,15.38
2022-12-16T20:06:32.402Z,15.39
2022-12-16T20:09:18.534Z,15.44
2022-12-16T20:12:07.246Z,15.46
2022-12-16T20:14:53.908Z,15.48
2022-12-16T20:17:44.664Z,15.49
2022-12-16T20:20:31.793Z,15.52
2022-12-16T20:23:25.118Z,15.55
2022-12-16T20:26:15.786Z,15.60
2022-12-16T20:29:02.683Z,15.52
2022-12-16T20:31:55.997Z,15.54
2022-12-16T20:34:42.081Z,15.53
2022-12-16T20:37:28.394Z,15.54
2022-12-16T20:40:16.475Z,15.52
2022-12-16T20:43:04.153Z,15.51
2022-12-16T20:45:51.774Z,15.51
2022-12-16T20:48:37.964Z,15.51
2022-12-16T20:51:27.005Z,15.49
2022-12-16T20:54:14.293Z,15.48
2022-12-16T20:57:00.467Z,15.48
2022-12-16T20:59:46.808Z,15.48
2022-12-16T21:02:37.101Z,15.48
2022-12-16T21:05:23.592Z,15.45
2022-12-16T21:08:09.928Z,15.41
2022-12-16T21:10:56.023Z,15.41
2022-12-16T21:13:42.899Z,15.39
2022-12-16T21:16:32.710Z,15.37
2022-12-16T21:19:19.963Z,15.36
2022-12-16T21:22:10.206Z,15.31
2022-12-16T21:24:56.364Z,15.34
2022-12-16T21:27:42.562Z,15.39
2022-12-16T21:30:38.181Z,15.39
2022-12-16T21:33:24.059Z,15.35
2022-12-16T21:36:14.039Z,15.06
2022-12-16T21:39:00.292Z,14.81
2022-12-16T21:41:46.290Z,14.65
2022-12-16T21:44:31.729Z,14.51
2022-12-16T21:47:17.976Z,14.36
2022-12-16T21:50:03.807Z,14.27
2022-12-16T21:52:51.671Z,14.16
2022-12-16T21:55:38.105Z,14.06
2022-12-16T21:58:30.008Z,13.99
2022-12-16T22:01:17.721Z,13.90
2022-12-16T22:04:03.652Z,13.84
2022-12-16T22:06:49.406Z,13.77
2022-12-16T22:09:35.384Z,13.70
2022-12-16T22:12:41.241Z,13.64
2022-12-16T22:15:27.751Z,13.58
2022-12-16T22:18:13.781Z,13.52
2022-12-16T22:21:00.029Z,13.53
2022-12-16T22:23:48.166Z,13.58
2022-12-16T22:26:34.256Z,13.60
2022-12-16T22:29:20.580Z,13.60
2022-12-16T22:32:06.418Z,13.59
2022-12-16T22:34:52.291Z,13.55
2022-12-16T22:37:38.706Z,13.54
2022-12-16T22:40:25.812Z,13.51
2022-12-16T22:43:11.397Z,13.47
2022-12-16T22:45:57.089Z,13.47
2022-12-16T22:48:42.892Z,13.45
2022-12-16T22:51:32.848Z,13.43
2022-12-16T22:54:19.498Z,13.42
2022-12-16T22:57:06.013Z,13.40
2022-12-16T22:59:51.948Z,13.36
2022-12-16T23:02:37.747Z,13.35
2022-12-16T23:05:27.718Z,13.33
2022-12-16T23:08:13.619Z,13.30
2022-12-16T23:11:00.173Z,13.27
2022-12-16T23:13:47.297Z,13.25
2022-12-16T23:16:33.915Z,13.22
2022-12-16T23:19:19.652Z,13.22
2022-12-16T23:22:07.604Z,13.19
2022-12-16T23:24:53.501Z,13.16
2022-12-16T23:27:39.673Z,13.14
2022-12-16T23:30:34.593Z,13.10
2022-12-16T23:33:21.648Z,13.10
2022-12-16T23:36:07.241Z,13.08
2022-12-16T23:38:53.229Z,13.06
2022-12-16T23:41:38.974Z,13.04
2022-12-16T23:44:24.547Z,13.01
2022-12-16T23:47:12.449Z,12.97
2022-12-16T23:49:58.096Z,12.95
2022-12-16T23:52:43.919Z,12.94
2022-12-16T23:55:29.505Z,12.92
2022-12-16T23:58:20.815Z,12.90
